Observation data for Anton on 01/11/2018      Previous  Date  Next       Current Mesonet Observations  Soil Data  Daily Summary Page  Observations in Plain Language
KAOS 110600Z 22018G23KT 08/00 A2958 RMK A01 T00810001  RH  058%=      5-min Rain = 0
KAOS 110605Z 22018KT 08/00 A2958 RMK A01 T00780001  RH  059%=      5-min Rain = 0
KAOS 110610Z 22019G24KT 08/00 A2958 RMK A01 T00750001  RH  060%=      5-min Rain = 0
KAOS 110615Z 23020G25KT 08/00 A2958 RMK A01 T00750001  RH  060%=      5-min Rain = 0
KAOS 110620Z 22018KT 07/00 A2959 RMK A01 T00740001  RH  061%=      5-min Rain = 0
KAOS 110625Z 22020KT 07/00 A2959 RMK A01 T00740002  RH  061%=      5-min Rain = 0
KAOS 110630Z 23021G26KT 08/00 A2959 RMK A01 T00760003  RH  061%=      5-min Rain = 0
KAOS 110635Z 23021G26KT 08/00 A2959 RMK A01 T00780004  RH  060%=      5-min Rain = 0
KAOS 110640Z 22021G26KT 08/00 A2959 RMK A01 T00780004  RH  060%=      5-min Rain = 0
KAOS 110645Z 23020G25KT 08/00 A2959 RMK A01 T00770004  RH  060%=      5-min Rain = 0
KAOS 110650Z 23020KT 08/00 A2959 RMK A01 T00770004  RH  061%=      5-min Rain = 0
KAOS 110655Z 23021KT 08/00 A2959 RMK A01 T00770004  RH  061%=      5-min Rain = 0
KAOS 110700Z 23019G24KT 08/00 A2959 RMK A01 T00760004  RH  061%=      5-min Rain = 0
KAOS 110705Z 23021G27KT 08/00 A2959 RMK A01 T00760004  RH  061%=      5-min Rain = 0
KAOS 110710Z 24020G26KT 08/00 A2959 RMK A01 T00750004  RH  061%=      5-min Rain = 0
KAOS 110715Z 23021G26KT 08/00 A2959 RMK A01 T00750004  RH  062%=      5-min Rain = 0
KAOS 110720Z 23021G26KT 08/01 A296 RMK A01 T00750005  RH  062%=      5-min Rain = 0
KAOS 110725Z 23019G25KT 07/01 A296 RMK A01 T00740005  RH  062%=      5-min Rain = 0
KAOS 110730Z 23019KT 07/01 A2961 RMK A01 T00730005  RH  063%=      5-min Rain = 0
KAOS 110735Z 23019G24KT 07/01 A2961 RMK A01 T00720005  RH  063%=      5-min Rain = 0
KAOS 110740Z 24017KT 07/01 A2962 RMK A01 T00720005  RH  063%=      5-min Rain = 0
KAOS 110745Z 24016KT 07/01 A2962 RMK A01 T00700005  RH  064%=      5-min Rain = 0
KAOS 110750Z 24016KT 07/01 A2962 RMK A01 T00680005  RH  065%=      5-min Rain = 0
KAOS 110755Z 24014KT 07/01 A2963 RMK A01 T00670005  RH  065%=      5-min Rain = 0
KAOS 110800Z 24011G16KT 07/00 A2964 RMK A01 T00650004  RH  066%=      5-min Rain = 0
KAOS 110805Z 24013KT 07/01 A2964 RMK A01 T00660005  RH  066%=      5-min Rain = 0
KAOS 110810Z 25014G20KT 07/01 A2964 RMK A01 T00690007  RH  065%=      5-min Rain = 0
KAOS 110815Z 26016G21KT 07/01 A2964 RMK A01 T00740010  RH  064%=      5-min Rain = 0
KAOS 110820Z 27019G24KT 09/01 A2964 RMK A01 T00860014  RH  062%=      5-min Rain = 0
KAOS 110825Z 27017G23KT 09/02 A2964 RMK A01 T00930015  RH  059%=      5-min Rain = 0
KAOS 110830Z 27019G25KT 09/02 A2965 RMK A01 T00940015  RH  059%=      5-min Rain = 0
KAOS 110835Z 26018G23KT 09/02 A2965 RMK A01 T00940015  RH  059%=      5-min Rain = 0
KAOS 110840Z 26018G23KT 09/02 A2965 RMK A01 T00930016  RH  059%=      5-min Rain = 0
KAOS 110845Z 26019KT 09/02 A2965 RMK A01 T00930016  RH  059%=      5-min Rain = 0
KAOS 110850Z 26017KT 09/02 A2966 RMK A01 T00920015  RH  059%=      5-min Rain = 0
KAOS 110855Z 26016KT 09/02 A2966 RMK A01 T00920015  RH  060%=      5-min Rain = 0
KAOS 110900Z 27015G20KT 09/02 A2966 RMK A01 T00910015  RH  060%=      5-min Rain = 0
KAOS 110905Z 28015KT 09/01 A2967 RMK A01 T00900014  RH  060%=      5-min Rain = 0
KAOS 110910Z 28015KT 09/01 A2967 RMK A01 T00900014  RH  060%=      5-min Rain = 0
KAOS 110915Z 28014G19KT 09/01 A2967 RMK A01 T00900013  RH  060%=      5-min Rain = 0
KAOS 110920Z 28014KT 09/01 A2967 RMK A01 T00890012  RH  059%=      5-min Rain = 0
KAOS 110925Z 28013KT 09/01 A2968 RMK A01 T00900012  RH  059%=      5-min Rain = 0
KAOS 110930Z 29013KT 09/01 A2968 RMK A01 T00890012  RH  059%=      5-min Rain = 0
KAOS 110935Z 29014KT 09/01 A2968 RMK A01 T00890012  RH  059%=      5-min Rain = 0
KAOS 110940Z 30012KT 09/01 A2969 RMK A01 T00890012  RH  059%=      5-min Rain = 0
KAOS 110945Z 30015G21KT 09/01 A2969 RMK A01 T00890014  RH  060%=      5-min Rain = 0
KAOS 110950Z 34030G36KT 09/03 A2969 RMK A01 T00920030  RH  067%=      5-min Rain = 0
KAOS 110955Z 34028G34KT 09/03 A297 RMK A01 T00880030  RH  068%=      5-min Rain = 0
KAOS 111000Z 35026G34KT 09/03 A2971 RMK A01 T00850028  RH  068%=      5-min Rain = 0
KAOS 111005Z 35028G35KT 08/02 A2971 RMK A01 T00840024  RH  067%=      5-min Rain = 0
KAOS 111010Z 35028KT 08/02 A2971 RMK A01 T00830022  RH  067%=      5-min Rain = 0
KAOS 111015Z 35023G29KT 08/02 A2972 RMK A01 T00820021  RH  066%=      5-min Rain = 0
KAOS 111020Z 34023G29KT 08/02 A2972 RMK A01 T00810018  RH  066%=      5-min Rain = 0
KAOS 111025Z 34026G32KT 08/02 A2973 RMK A01 T00780017  RH  066%=      5-min Rain = 0
KAOS 111030Z 35027G34KT 08/02 A2973 RMK A01 T00750016  RH  067%=      5-min Rain = 0
KAOS 111035Z 35029G37KT 07/02 A2973 RMK A01 T00730015  RH  068%=      5-min Rain = 0
KAOS 111040Z 35025G30KT 07/02 A2973 RMK A01 T00720015  RH  068%=      5-min Rain = 0
KAOS 111045Z 35021G27KT 07/02 A2974 RMK A01 T00720016  RH  069%=      5-min Rain = 0
KAOS 111050Z 34019G26KT 07/02 A2974 RMK A01 T00710016  RH  069%=      5-min Rain = 0
KAOS 111055Z 33018G25KT 07/02 A2974 RMK A01 T00710017  RH  069%=      5-min Rain = 0
KAOS 111100Z 34026G34KT 07/01 A2975 RMK A01 T00700014  RH  068%=      5-min Rain = 0
KAOS 111105Z 34025G32KT 07/01 A2975 RMK A01 T00700013  RH  068%=      5-min Rain = 0
KAOS 111110Z 35022G30KT 07/01 A2975 RMK A01 T00690014  RH  069%=      5-min Rain = 0
KAOS 111115Z 34022G28KT 07/01 A2975 RMK A01 T00680014  RH  069%=      5-min Rain = 0
KAOS 111120Z 34026G35KT 07/01 A2975 RMK A01 T00670011  RH  068%=      5-min Rain = 0
KAOS 111125Z 35023G30KT 07/01 A2976 RMK A01 T00670010  RH  068%=      5-min Rain = 0
KAOS 111130Z 34021G29KT 07/01 A2977 RMK A01 T00650010  RH  069%=      5-min Rain = 0
KAOS 111135Z 35023G28KT 06/01 A2977 RMK A01 T00640009  RH  069%=      5-min Rain = 0
KAOS 111140Z 35025G34KT 06/01 A2978 RMK A01 T00620008  RH  069%=      5-min Rain = 0
KAOS 111145Z 35025G31KT 06/01 A2978 RMK A01 T00600006  RH  070%=      5-min Rain = 0
KAOS 111150Z 35025G31KT 06/01 A2979 RMK A01 T00580007  RH  070%=      5-min Rain = 0
KAOS 111155Z 35018G23KT 06/01 A298 RMK A01 T00570007  RH  071%=      5-min Rain = 0
KAOS 111200Z 34019G26KT 06/01 A2981 RMK A01 T00560006  RH  071%=      5-min Rain = 0
KAOS 111205Z 34024G30KT 06/01 A2981 RMK A01 T00550005  RH  071%=      5-min Rain = 0
KAOS 111210Z 34026G32KT 05/00 A2981 RMK A01 T00530003  RH  071%=      5-min Rain = 0
KAOS 111215Z 34027G32KT 05/00 A2982 RMK A01 T00510002  RH  071%=      5-min Rain = 0
KAOS 111220Z 34029G37KT 05/M00 A2982 RMK A01 T00481001  RH  072%=      5-min Rain = 0
KAOS 111225Z 34027G34KT 05/M00 A2983 RMK A01 T00451003  RH  072%=      5-min Rain = 0
KAOS 111230Z 34027G34KT 04/M00 A2984 RMK A01 T00431004  RH  072%=      5-min Rain = 0
KAOS 111235Z 35025G32KT 04/M01 A2985 RMK A01 T00411006  RH  072%=      5-min Rain = 0
KAOS 111240Z 34023G29KT 04/M01 A2986 RMK A01 T00381007  RH  073%=      5-min Rain = 0
KAOS 111245Z 34021G28KT 04/M01 A2986 RMK A01 T00371008  RH  073%=      5-min Rain = 0
KAOS 111250Z 34022G28KT 04/M01 A2987 RMK A01 T00361008  RH  073%=      5-min Rain = 0
KAOS 111255Z 33023G33KT 04/M01 A2987 RMK A01 T00361009  RH  073%=      5-min Rain = 0
KAOS 111300Z 33028G35KT 03/M02 A2988 RMK A01 T00341015  RH  071%=      5-min Rain = 0
KAOS 111305Z 33029G37KT 03/M02 A2988 RMK A01 T00291023  RH  069%=      5-min Rain = 0
KAOS 111310Z 34030G39KT 03/M03 A2988 RMK A01 T00251029  RH  068%=      5-min Rain = 0
KAOS 111315Z 34029G37KT 02/M03 A2989 RMK A01 T00231030  RH  068%=      5-min Rain = 0
KAOS 111320Z 34030G37KT 02/M03 A2989 RMK A01 T00221034  RH  067%=      5-min Rain = 0
KAOS 111325Z 34030G36KT 02/M04 A299 RMK A01 T00211038  RH  066%=      5-min Rain = 0
KAOS 111330Z 34029G35KT 02/M04 A299 RMK A01 T00211040  RH  064%=      5-min Rain = 0
KAOS 111335Z 34031G40KT 02/M04 A2991 RMK A01 T00201044  RH  063%=      5-min Rain = 0
KAOS 111340Z 34032G42KT 02/M05 A2991 RMK A01 T00171048  RH  062%=      5-min Rain = 0
KAOS 111345Z 35031G39KT 02/M05 A2991 RMK A01 T00151050  RH  062%=      5-min Rain = 0
KAOS 111350Z 35029G38KT 01/M05 A2992 RMK A01 T00141051  RH  062%=      5-min Rain = 0
KAOS 111355Z 35032G40KT 01/M05 A2993 RMK A01 T00121053  RH  062%=      5-min Rain = 0
KAOS 111400Z 35029G35KT 01/M05 A2993 RMK A01 T00111054  RH  062%=      5-min Rain = 0
KAOS 111405Z 35025G33KT 01/M06 A2994 RMK A01 T00101055  RH  062%=      5-min Rain = 0
KAOS 111410Z 35026G36KT 01/M06 A2994 RMK A01 T00101056  RH  061%=      5-min Rain = 0
KAOS 111415Z 35023G31KT 01/M06 A2994 RMK A01 T00091056  RH  062%=      5-min Rain = 0
KAOS 111420Z 35023G32KT 01/M06 A2995 RMK A01 T00091056  RH  062%=      5-min Rain = 0
KAOS 111425Z 34023G29KT 01/M06 A2995 RMK A01 T00091055  RH  063%=      5-min Rain = 0
KAOS 111430Z 34022G30KT 01/M05 A2996 RMK A01 T00091054  RH  063%=      5-min Rain = 0
KAOS 111435Z 34022G27KT 01/M05 A2996 RMK A01 T00091054  RH  063%=      5-min Rain = 0
KAOS 111440Z 34022G28KT 01/M05 A2997 RMK A01 T00091054  RH  063%=      5-min Rain = 0
KAOS 111445Z 34025G33KT 01/M06 A2998 RMK A01 T00101056  RH  061%=      5-min Rain = 0
KAOS 111450Z 34025G32KT 01/M06 A2998 RMK A01 T00111058  RH  060%=      5-min Rain = 0
KAOS 111455Z 35025G33KT 01/M06 A2999 RMK A01 T00121060  RH  059%=      5-min Rain = 0
KAOS 111500Z 35025G32KT 01/M06 A2999 RMK A01 T00131060  RH  058%=      5-min Rain = 0
KAOS 111505Z 34023G30KT 01/M06 A30 RMK A01 T00131060  RH  058%=      5-min Rain = 0
KAOS 111510Z 34024G31KT 01/M06 A30 RMK A01 T00121060  RH  059%=      5-min Rain = 0
KAOS 111515Z 34022G28KT 01/M06 A30 RMK A01 T00111059  RH  059%=      5-min Rain = 0
KAOS 111520Z 34021G27KT 01/M06 A3001 RMK A01 T00111058  RH  060%=      5-min Rain = 0
KAOS 111525Z 34020KT 01/M06 A3002 RMK A01 T00131057  RH  060%=      5-min Rain = 0
KAOS 111530Z 34020G26KT 02/M06 A3002 RMK A01 T00151056  RH  059%=      5-min Rain = 0
KAOS 111535Z 34025G32KT 02/M06 A3003 RMK A01 T00171058  RH  057%=      5-min Rain = 0
KAOS 111540Z 34027G37KT 02/M06 A3004 RMK A01 T00181061  RH  056%=      5-min Rain = 0
KAOS 111545Z 34025G31KT 02/M06 A3004 RMK A01 T00201060  RH  056%=      5-min Rain = 0
KAOS 111550Z 34028G35KT 02/M06 A3004 RMK A01 T00191063  RH  054%=      5-min Rain = 0
KAOS 111555Z 35029G38KT 02/M07 A3005 RMK A01 T00191066  RH  053%=      5-min Rain = 0
KAOS 111600Z 35030G36KT 02/M07 A3005 RMK A01 T00191067  RH  053%=      5-min Rain = 0
KAOS 111605Z 35029G35KT 02/M07 A3006 RMK A01 T00191067  RH  053%=      5-min Rain = 0
KAOS 111610Z 35028G35KT 02/M07 A3006 RMK A01 T00221067  RH  052%=      5-min Rain = 0
KAOS 111615Z 35026G33KT 02/M07 A3007 RMK A01 T00231067  RH  052%=      5-min Rain = 0
KAOS 111620Z 35023G29KT 03/M07 A3007 RMK A01 T00271065  RH  051%=      5-min Rain = 0
KAOS 111625Z 35027G33KT 03/M07 A3008 RMK A01 T00281066  RH  050%=      5-min Rain = 0
KAOS 111630Z 35026G32KT 03/M07 A3008 RMK A01 T00281066  RH  050%=      5-min Rain = 0
KAOS 111635Z 34025G32KT 03/M07 A3009 RMK A01 T00291066  RH  050%=      5-min Rain = 0
KAOS 111640Z 35028G34KT 03/M07 A3009 RMK A01 T00281068  RH  049%=      5-min Rain = 0
KAOS 111645Z 34029G35KT 03/M07 A3009 RMK A01 T00271070  RH  049%=      5-min Rain = 0
KAOS 111650Z 35027KT 03/M07 A301 RMK A01 T00271070  RH  049%=      5-min Rain = 0
KAOS 111655Z 35025KT 03/M07 A301 RMK A01 T00291070  RH  048%=      5-min Rain = 0
KAOS 111700Z 36027G34KT 03/M07 A301 RMK A01 T00321071  RH  047%=      5-min Rain = 0
KAOS 111705Z 34026G35KT 03/M07 A3011 RMK A01 T00341072  RH  046%=      5-min Rain = 0
KAOS 111710Z 35029G38KT 03/M08 A3012 RMK A01 T00341075  RH  044%=      5-min Rain = 0
KAOS 111715Z 36026G33KT 04/M08 A3013 RMK A01 T00361075  RH  044%=      5-min Rain = 0
KAOS 111720Z 35028KT 04/M08 A3013 RMK A01 T00401075  RH  043%=      5-min Rain = 0
KAOS 111725Z 35027G36KT 04/M08 A3013 RMK A01 T00371078  RH  043%=      5-min Rain = 0
KAOS 111730Z 35027G33KT 04/M08 A3013 RMK A01 T00381078  RH  043%=      5-min Rain = 0
KAOS 111735Z 35025G31KT 04/M08 A3013 RMK A01 T00411078  RH  041%=      5-min Rain = 0
KAOS 111740Z 35023G28KT 05/M08 A3014 RMK A01 T00451077  RH  041%=      5-min Rain = 0
KAOS 111745Z 35022G29KT 05/M08 A3014 RMK A01 T00501076  RH  040%=      5-min Rain = 0
KAOS 111750Z 35025G31KT 05/M08 A3014 RMK A01 T00481078  RH  040%=      5-min Rain = 0
KAOS 111755Z 34024G34KT 05/M08 A3014 RMK A01 T00491077  RH  040%=      5-min Rain = 0
KAOS 111800Z 34024G30KT 05/M08 A3014 RMK A01 T00481080  RH  039%=      5-min Rain = 0
KAOS 111805Z 35027G34KT 05/M08 A3015 RMK A01 T00481083  RH  038%=      5-min Rain = 0
KAOS 111810Z 35026G34KT 05/M09 A3014 RMK A01 T00511085  RH  037%=      5-min Rain = 0
KAOS 111815Z 35025G33KT 05/M09 A3015 RMK A01 T00531085  RH  036%=      5-min Rain = 0
KAOS 111820Z 35024G31KT 06/M09 A3015 RMK A01 T00551086  RH  035%=      5-min Rain = 0
KAOS 111825Z 34025G31KT 06/M09 A3015 RMK A01 T00561086  RH  035%=      5-min Rain = 0
KAOS 111830Z 35025G31KT 06/M09 A3015 RMK A01 T00571088  RH  034%=      5-min Rain = 0
KAOS 111835Z 35027G33KT 06/M09 A3015 RMK A01 T00591090  RH  033%=      5-min Rain = 0
KAOS 111840Z 35026G31KT 06/M09 A3015 RMK A01 T00601092  RH  033%=      5-min Rain = 0
KAOS 111845Z 35025G31KT 06/M09 A3015 RMK A01 T00621090  RH  033%=      5-min Rain = 0
KAOS 111850Z 34025G31KT 06/M09 A3015 RMK A01 T00641090  RH  032%=      5-min Rain = 0
KAOS 111855Z 35026G33KT 07/M09 A3015 RMK A01 T00661090  RH  032%=      5-min Rain = 0
KAOS 111900Z 35026G33KT 07/M09 A3015 RMK A01 T00661093  RH  031%=      5-min Rain = 0
KAOS 111905Z 35024G29KT 07/M09 A3015 RMK A01 T00681089  RH  031%=      5-min Rain = 0
KAOS 111910Z 35024G30KT 07/M09 A3015 RMK A01 T00691090  RH  031%=      5-min Rain = 0
KAOS 111915Z 35024G29KT 07/M09 A3015 RMK A01 T00671089  RH  032%=      5-min Rain = 0
KAOS 111920Z 35024G32KT 07/M09 A3015 RMK A01 T00711088  RH  031%=      5-min Rain = 0
KAOS 111925Z 36024G29KT 07/M09 A3014 RMK A01 T00741088  RH  031%=      5-min Rain = 0
KAOS 111930Z 35025G30KT 07/M09 A3014 RMK A01 T00731089  RH  031%=      5-min Rain = 0
KAOS 111935Z 36026G31KT 07/M09 A3013 RMK A01 T00741086  RH  031%=      5-min Rain = 0
KAOS 111940Z 36023G29KT 08/M08 A3014 RMK A01 T00751084  RH  031%=      5-min Rain = 0
KAOS 111945Z 34022G28KT 08/M09 A3014 RMK A01 T00751085  RH  031%=      5-min Rain = 0
KAOS 111950Z 34024G30KT 08/M08 A3014 RMK A01 T00751084  RH  031%=      5-min Rain = 0
KAOS 111955Z 35021G27KT 08/M08 A3015 RMK A01 T00791084  RH  030%=      5-min Rain = 0
KAOS 112000Z 36022G27KT 08/M09 A3015 RMK A01 T00791085  RH  030%=      5-min Rain = 0
KAOS 112005Z 35023G28KT 08/M09 A3014 RMK A01 T00801085  RH  030%=      5-min Rain = 0
KAOS 112010Z 35020G26KT 08/M08 A3014 RMK A01 T00801084  RH  030%=      5-min Rain = 0
KAOS 112015Z 36023G28KT 08/M09 A3014 RMK A01 T00831085  RH  029%=      5-min Rain = 0
KAOS 112020Z 35023KT 08/M09 A3014 RMK A01 T00821085  RH  030%=      5-min Rain = 0
KAOS 112025Z 35022G31KT 09/M09 A3014 RMK A01 T00861087  RH  028%=      5-min Rain = 0
KAOS 112030Z 35024G29KT 08/M09 A3015 RMK A01 T00831089  RH  028%=      5-min Rain = 0
KAOS 112035Z 35023G30KT 09/M09 A3015 RMK A01 T00861089  RH  028%=      5-min Rain = 0
KAOS 112040Z 00024G29KT 09/M09 A3015 RMK A01 T00861092  RH  027%=      5-min Rain = 0
KAOS 112045Z 36025G30KT 09/M10 A3015 RMK A01 T00861095  RH  027%=      5-min Rain = 0
KAOS 112050Z 00022G29KT 09/M09 A3015 RMK A01 T00881094  RH  027%=      5-min Rain = 0
KAOS 112055Z 01023G30KT 09/M09 A3015 RMK A01 T00871093  RH  027%=      5-min Rain = 0
KAOS 112100Z 35022G29KT 09/M09 A3016 RMK A01 T00881094  RH  027%=      5-min Rain = 0
KAOS 112105Z 36021G28KT 09/M09 A3016 RMK A01 T00881093  RH  027%=      5-min Rain = 0
KAOS 112110Z 34021G28KT 09/M09 A3016 RMK A01 T00891092  RH  027%=      5-min Rain = 0
KAOS 112115Z 35021KT 09/M09 A3017 RMK A01 T00901094  RH  026%=      5-min Rain = 0
KAOS 112120Z 35021G27KT 09/M10 A3017 RMK A01 T00891095  RH  026%=      5-min Rain = 0
KAOS 112125Z 35020G26KT 09/M10 A3017 RMK A01 T00881095  RH  026%=      5-min Rain = 0
KAOS 112130Z 35020KT 09/M09 A3017 RMK A01 T00881094  RH  027%=      5-min Rain = 0
KAOS 112135Z 34016G21KT 09/M09 A3017 RMK A01 T00881092  RH  027%=      5-min Rain = 0
KAOS 112140Z 35019G25KT 09/M10 A3018 RMK A01 T00911095  RH  026%=      5-min Rain = 0
KAOS 112145Z 35019G24KT 09/M10 A3018 RMK A01 T00901096  RH  026%=      5-min Rain = 0
KAOS 112150Z 34020G27KT 09/M10 A3018 RMK A01 T00891099  RH  025%=      5-min Rain = 0
KAOS 112155Z 35022KT 09/M10 A3018 RMK A01 T00881101  RH  025%=      5-min Rain = 0
KAOS 112200Z 36021G26KT 09/M10 A3018 RMK A01 T00861100  RH  026%=      5-min Rain = 0
KAOS 112205Z 00019KT 09/M10 A3019 RMK A01 T00851100  RH  026%=      5-min Rain = 0
KAOS 112210Z 36019G26KT 09/M10 A3019 RMK A01 T00861098  RH  026%=      5-min Rain = 0
KAOS 112215Z 00017G23KT 09/M10 A3019 RMK A01 T00851097  RH  026%=      5-min Rain = 0
KAOS 112220Z 36017G23KT 09/M10 A3019 RMK A01 T00861097  RH  026%=      5-min Rain = 0
KAOS 112225Z 00015KT 09/M10 A3019 RMK A01 T00851096  RH  027%=      5-min Rain = 0
KAOS 112230Z 36013KT 09/M09 A3019 RMK A01 T00851094  RH  027%=      5-min Rain = 0
KAOS 112235Z 34015G20KT 09/M09 A302 RMK A01 T00851093  RH  027%=      5-min Rain = 0
KAOS 112240Z 34014G20KT 09/M09 A302 RMK A01 T00851094  RH  027%=      5-min Rain = 0
KAOS 112245Z 35016G21KT 09/M10 A302 RMK A01 T00851097  RH  026%=      5-min Rain = 0
KAOS 112250Z 35018KT 08/M10 A302 RMK A01 T00831098  RH  027%=      5-min Rain = 0
KAOS 112255Z 36017KT 08/M10 A3021 RMK A01 T00821097  RH  027%=      5-min Rain = 0
KAOS 112300Z 35015G20KT 08/M10 A3021 RMK A01 T00811096  RH  027%=      5-min Rain = 0
KAOS 112305Z 36015G20KT 08/M10 A3021 RMK A01 T00811097  RH  027%=      5-min Rain = 0
KAOS 112310Z 00016KT 08/M10 A3021 RMK A01 T00801097  RH  027%=      5-min Rain = 0
KAOS 112315Z 00014KT 08/M10 A3022 RMK A01 T00801096  RH  027%=      5-min Rain = 0
KAOS 112320Z 36012KT 08/M10 A3022 RMK A01 T00791097  RH  028%=      5-min Rain = 0
KAOS 112325Z 35010KT 08/M10 A3022 RMK A01 T00781097  RH  028%=      5-min Rain = 0
KAOS 112330Z 35012KT 08/M10 A3022 RMK A01 T00771097  RH  028%=      5-min Rain = 0
KAOS 112335Z 35013KT 08/M10 A3023 RMK A01 T00751097  RH  028%=      5-min Rain = 0
KAOS 112340Z 36013KT 07/M10 A3023 RMK A01 T00731099  RH  028%=      5-min Rain = 0
KAOS 112345Z 00012KT 07/M10 A3023 RMK A01 T00701100  RH  029%=      5-min Rain = 0
KAOS 112350Z 36010KT 07/M10 A3023 RMK A01 T00671100  RH  029%=      5-min Rain = 0
KAOS 112355Z 35008KT 06/M10 A3024 RMK A01 T00631101  RH  030%=      5-min Rain = 0
KAOS 120000Z 36008KT 06/M10 A3024 RMK A01 T00601102  RH  030%=      5-min Rain = 0
KAOS 120005Z 00007KT 06/M10 A3024 RMK A01 T00561104  RH  030%=      5-min Rain = 0
KAOS 120010Z 36006KT 05/M11 A3024 RMK A01 T00511105  RH  031%=      5-min Rain = 0
KAOS 120015Z 36005KT 05/M11 A3024 RMK A01 T00461107  RH  032%=      5-min Rain = 0
KAOS 120020Z 34005KT 04/M11 A3024 RMK A01 T00401112  RH  032%=      5-min Rain = 0
KAOS 120025Z 33005KT 03/M12 A3025 RMK A01 T00301116  RH  033%=      5-min Rain = 0
KAOS 120030Z 35006KT 03/M11 A3025 RMK A01 T00291109  RH  035%=      5-min Rain = 0
KAOS 120035Z 36007KT 03/M11 A3025 RMK A01 T00301110  RH  035%=      5-min Rain = 0
KAOS 120040Z 00008KT 03/M11 A3025 RMK A01 T00281111  RH  035%=      5-min Rain = 0
KAOS 120045Z 01008KT 03/M11 A3025 RMK A01 T00251113  RH  035%=      5-min Rain = 0
KAOS 120050Z 01007KT 02/M11 A3025 RMK A01 T00221112  RH  036%=      5-min Rain = 0
KAOS 120055Z 01007KT 02/M11 A3025 RMK A01 T00211110  RH  037%=      5-min Rain = 0
KAOS 120100Z 01007KT 02/M11 A3025 RMK A01 T00221109  RH  037%=      5-min Rain = 0
KAOS 120105Z 00008KT 02/M11 A3025 RMK A01 T00191109  RH  038%=      5-min Rain = 0
KAOS 120110Z 00009KT 01/M11 A3025 RMK A01 T00131112  RH  039%=      5-min Rain = 0
KAOS 120115Z 00009KT 01/M11 A3025 RMK A01 T00101112  RH  039%=      5-min Rain = 0
KAOS 120120Z 00008KT 01/M11 A3026 RMK A01 T00101111  RH  040%=      5-min Rain = 0
KAOS 120125Z 00008KT 01/M11 A3026 RMK A01 T00091111  RH  040%=      5-min Rain = 0
KAOS 120130Z 36007KT 01/M11 A3026 RMK A01 T00061113  RH  040%=      5-min Rain = 0
KAOS 120135Z 35006KT 01/M11 A3026 RMK A01 T00081110  RH  041%=      5-min Rain = 0
KAOS 120140Z 35007KT 01/M11 A3026 RMK A01 T00091112  RH  040%=      5-min Rain = 0
KAOS 120145Z 36007KT 01/M11 A3026 RMK A01 T00061113  RH  040%=      5-min Rain = 0
KAOS 120150Z 00008KT 00/M11 A3026 RMK A01 T00041113  RH  041%=      5-min Rain = 0
KAOS 120155Z 00007KT 00/M11 A3026 RMK A01 T00021112  RH  042%=      5-min Rain = 0
KAOS 120200Z 01007KT 00/11 A3026 RMK A01 T00-00-111  RH  043%=      5-min Rain = 0
KAOS 120205Z 01007KT M00/M11 A3026 RMK A01 T10031112  RH  043%=      5-min Rain = 0
KAOS 120210Z 01007KT M01/M11 A3026 RMK A01 T10061111  RH  045%=      5-min Rain = 0
KAOS 120215Z 01008KT M01/M11 A3026 RMK A01 T10061112  RH  044%=      5-min Rain = 0
KAOS 120220Z 01007KT M01/M11 A3026 RMK A01 T10081113  RH  045%=      5-min Rain = 0
KAOS 120225Z 02006KT M01/M11 A3026 RMK A01 T10101112  RH  046%=      5-min Rain = 0
KAOS 120230Z 02005KT M01/M11 A3026 RMK A01 T10101112  RH  046%=      5-min Rain = 0
KAOS 120235Z 02003KT M02/M12 A3026 RMK A01 T10151121  RH  044%=      5-min Rain = 0
KAOS 120240Z 02004KT M02/M12 A3026 RMK A01 T10191119  RH  046%=      5-min Rain = 0
KAOS 120245Z 02004KT M02/M12 A3026 RMK A01 T10221124  RH  045%=      5-min Rain = 0
KAOS 120250Z 02004KT M03/M13 A3026 RMK A01 T10271125  RH  046%=      5-min Rain = 0
KAOS 120255Z 02001KT M03/M12 A3026 RMK A01 T10271122  RH  048%=      5-min Rain = 0
KAOS 120300Z 06000KT M03/M12 A3026 RMK A01 T10261119  RH  048%=      5-min Rain = 0
KAOS 120305Z 04002KT M02/M11 A3026 RMK A01 T10221109  RH  051%=      5-min Rain = 0
KAOS 120310Z 03004KT M01/M11 A3026 RMK A01 T10131108  RH  048%=      5-min Rain = 0
KAOS 120315Z 03005KT M01/M11 A3026 RMK A01 T10121112  RH  046%=      5-min Rain = 0
KAOS 120320Z 03006KT M02/M11 A3026 RMK A01 T10151113  RH  047%=      5-min Rain = 0
KAOS 120325Z 03005KT M02/M12 A3026 RMK A01 T10201116  RH  048%=      5-min Rain = 0
KAOS 120330Z 03005KT M02/M11 A3026 RMK A01 T10221113  RH  050%=      5-min Rain = 0
KAOS 120335Z 04004KT M02/M11 A3025 RMK A01 T10221112  RH  050%=      5-min Rain = 0
KAOS 120340Z 03003KT M02/M11 A3026 RMK A01 T10211112  RH  049%=      5-min Rain = 0
KAOS 120345Z 03002KT M02/M11 A3026 RMK A01 T10231114  RH  049%=      5-min Rain = 0
KAOS 120350Z 03002KT M02/M11 A3026 RMK A01 T10231113  RH  050%=      5-min Rain = 0
KAOS 120355Z 06002KT M02/M11 A3026 RMK A01 T10221111  RH  050%=      5-min Rain = 0
KAOS 120400Z 08002KT M02/M11 A3026 RMK A01 T10201109  RH  051%=      5-min Rain = 0
KAOS 120405Z 08002KT M02/M11 A3026 RMK A01 T10201111  RH  049%=      5-min Rain = 0
KAOS 120410Z 07002KT M03/M11 A3027 RMK A01 T10251114  RH  050%=      5-min Rain = 0
KAOS 120415Z 07002KT M03/M11 A3027 RMK A01 T10261114  RH  051%=      5-min Rain = 0
KAOS 120420Z 10001KT M03/M11 A3027 RMK A01 T10281112  RH  052%=      5-min Rain = 0
KAOS 120425Z 09001KT M03/M11 A3028 RMK A01 T10281112  RH  052%=      5-min Rain = 0
KAOS 120430Z 18001KT M03/M11 A3028 RMK A01 T10271111  RH  052%=      5-min Rain = 0
KAOS 120435Z 20001KT M03/M12 A3028 RMK A01 T10281115  RH  051%=      5-min Rain = 0
KAOS 120440Z 20001KT M03/M12 A3028 RMK A01 T10321124  RH  049%=      5-min Rain = 0
KAOS 120445Z 20000KT M04/M12 A3028 RMK A01 T10361124  RH  050%=      5-min Rain = 0
KAOS 120450Z 20000KT M04/M13 A3028 RMK A01 T10371125  RH  050%=      5-min Rain = 0
KAOS 120455Z 20000KT M04/M12 A3028 RMK A01 T10351118  RH  052%=      5-min Rain = 0
KAOS 120500Z 20001KT M03/M11 A3028 RMK A01 T10311113  RH  053%=      5-min Rain = 0
KAOS 120505Z 04001KT M03/M11 A3028 RMK A01 T10271111  RH  052%=      5-min Rain = 0
KAOS 120510Z 04001KT M03/M11 A3028 RMK A01 T10271111  RH  052%=      5-min Rain = 0
KAOS 120515Z 04002KT M03/M11 A3028 RMK A01 T10281112  RH  052%=      5-min Rain = 0
KAOS 120520Z 04002KT M04/M13 A3027 RMK A01 T10371127  RH  049%=      5-min Rain = 0
KAOS 120525Z 04003KT M05/M12 A3027 RMK A01 T10461123  RH  054%=      5-min Rain = 0
KAOS 120530Z 04002KT M05/M12 A3027 RMK A01 T10481121  RH  056%=      5-min Rain = 0
KAOS 120535Z 05003KT M05/M12 A3027 RMK A01 T10451117  RH  057%=      5-min Rain = 0
KAOS 120540Z 06003KT M04/M11 A3027 RMK A01 T10421114  RH  057%=      5-min Rain = 0
KAOS 120545Z 07003KT M04/M11 A3027 RMK A01 T10391112  RH  056%=      5-min Rain = 0
KAOS 120550Z 06003KT M04/M11 A3027 RMK A01 T10381113  RH  056%=      5-min Rain = 0
KAOS 120555Z 06002KT M04/M12 A3027 RMK A01 T10381115  RH  055%=      5-min Rain = 0

Page generated in 0.0363 seconds.